sensor_id;sensor_type;location;lat;lon;timestamp;noise_LAeq;noise_LA_min;noise_LA_max;noise_LA01;noise_LA95
49543;Laerm;35435;48.792;8.962;2022-12-07T00:01:07;40.73;36.85;45.93;;
49543;Laerm;35435;48.792;8.962;2022-12-07T00:03:33;40.31;36.07;44.60;;
49543;Laerm;35435;48.792;8.962;2022-12-07T00:05:59;41.67;37.47;46.29;;
49543;Laerm;35435;48.792;8.962;2022-12-07T00:08:24;40.99;36.63;45.62;;
49543;Laerm;35435;48.792;8.962;2022-12-07T00:10:50;40.58;36.57;44.35;;
49543;Laerm;35435;48.792;8.962;2022-12-07T00:13:15;40.74;36.45;44.75;;
49543;Laerm;35435;48.792;8.962;2022-12-07T00:15:40;40.25;36.27;43.45;;
49543;Laerm;35435;48.792;8.962;2022-12-07T00:18:06;53.04;37.42;73.41;;
49543;Laerm;35435;48.792;8.962;2022-12-07T00:20:31;41.64;37.02;44.71;;
49543;Laerm;35435;48.792;8.962;2022-12-07T00:22:58;40.65;36.85;46.84;;
49543;Laerm;35435;48.792;8.962;2022-12-07T00:25:23;41.32;37.92;45.46;;
49543;Laerm;35435;48.792;8.962;2022-12-07T00:27:48;40.61;35.80;47.19;;
49543;Laerm;35435;48.792;8.962;2022-12-07T00:30:14;40.43;37.12;44.53;;
49543;Laerm;35435;48.792;8.962;2022-12-07T00:32:39;41.34;37.02;44.77;;
49543;Laerm;35435;48.792;8.962;2022-12-07T00:35:05;41.77;36.45;46.53;;
49543;Laerm;35435;48.792;8.962;2022-12-07T00:37:30;41.29;36.91;44.49;;
49543;Laerm;35435;48.792;8.962;2022-12-07T00:39:56;40.23;36.91;43.33;;
49543;Laerm;35435;48.792;8.962;2022-12-07T00:42:21;40.40;36.74;44.64;;
49543;Laerm;35435;48.792;8.962;2022-12-07T00:44:46;41.22;36.57;49.01;;
49543;Laerm;35435;48.792;8.962;2022-12-07T00:47:12;40.65;36.63;44.14;;
49543;Laerm;35435;48.792;8.962;2022-12-07T00:49:37;40.58;36.74;45.01;;
49543;Laerm;35435;48.792;8.962;2022-12-07T00:52:03;40.92;36.85;44.93;;
49543;Laerm;35435;48.792;8.962;2022-12-07T00:54:28;40.12;36.51;43.89;;
49543;Laerm;35435;48.792;8.962;2022-12-07T00:56:54;40.31;36.34;45.06;;
49543;Laerm;35435;48.792;8.962;2022-12-07T00:59:19;39.83;35.44;44.15;;
49543;Laerm;35435;48.792;8.962;2022-12-07T01:01:44;40.52;36.57;43.80;;
49543;Laerm;35435;48.792;8.962;2022-12-07T01:04:10;41.36;37.83;44.38;;
49543;Laerm;35435;48.792;8.962;2022-12-07T01:06:35;41.30;37.70;43.96;;
49543;Laerm;35435;48.792;8.962;2022-12-07T01:09:00;40.97;36.96;44.76;;
49543;Laerm;35435;48.792;8.962;2022-12-07T01:11:27;41.34;36.85;45.89;;
49543;Laerm;35435;48.792;8.962;2022-12-07T01:13:53;40.44;36.01;44.54;;
49543;Laerm;35435;48.792;8.962;2022-12-07T01:16:20;40.98;37.61;45.22;;
49543;Laerm;35435;48.792;8.962;2022-12-07T01:18:46;40.76;36.77;44.95;;
49543;Laerm;35435;48.792;8.962;2022-12-07T01:21:14;40.08;36.07;44.01;;
49543;Laerm;35435;48.792;8.962;2022-12-07T01:23:39;39.99;36.07;43.57;;
49543;Laerm;35435;48.792;8.962;2022-12-07T01:26:07;40.01;35.94;43.81;;
49543;Laerm;35435;48.792;8.962;2022-12-07T01:28:32;40.55;36.85;45.68;;
49543;Laerm;35435;48.792;8.962;2022-12-07T01:30:59;40.18;36.33;44.08;;
49543;Laerm;35435;48.792;8.962;2022-12-07T01:33:26;40.78;36.45;45.47;;
49543;Laerm;35435;48.792;8.962;2022-12-07T01:35:52;40.83;36.80;45.05;;
49543;Laerm;35435;48.792;8.962;2022-12-07T01:38:17;40.48;36.69;44.06;;
49543;Laerm;35435;48.792;8.962;2022-12-07T01:40:42;40.19;36.20;43.47;;
49543;Laerm;35435;48.792;8.962;2022-12-07T01:43:14;68.67;37.17;85.07;;
49543;Laerm;35435;48.792;8.962;2022-12-07T01:45:43;41.02;37.75;44.10;;
49543;Laerm;35435;48.792;8.962;2022-12-07T01:48:05;40.62;36.96;44.30;;
49543;Laerm;35435;48.792;8.962;2022-12-07T01:50:32;40.12;36.27;43.64;;
49543;Laerm;35435;48.792;8.962;2022-12-07T01:52:58;40.20;36.07;43.68;;
49543;Laerm;35435;48.792;8.962;2022-12-07T01:55:25;40.05;36.14;42.98;;
49543;Laerm;35435;48.792;8.962;2022-12-07T01:57:52;39.92;36.51;42.82;;
49543;Laerm;35435;48.792;8.962;2022-12-07T02:00:19;40.56;35.87;44.15;;
49543;Laerm;35435;48.792;8.962;2022-12-07T02:02:52;40.94;36.85;45.27;;
49543;Laerm;35435;48.792;8.962;2022-12-07T02:05:18;40.62;36.80;54.58;;
49543;Laerm;35435;48.792;8.962;2022-12-07T02:07:43;40.46;36.51;44.67;;
49543;Laerm;35435;48.792;8.962;2022-12-07T02:10:15;40.79;37.22;44.41;;
49543;Laerm;35435;48.792;8.962;2022-12-07T02:12:41;40.83;36.91;44.10;;
49543;Laerm;35435;48.792;8.962;2022-12-07T02:15:07;40.35;35.94;45.19;;
49543;Laerm;35435;48.792;8.962;2022-12-07T02:20:03;41.10;37.61;44.50;;
49543;Laerm;35435;48.792;8.962;2022-12-07T02:22:33;41.23;38.09;43.95;;
49543;Laerm;35435;48.792;8.962;2022-12-07T02:25:14;40.94;35.94;44.08;;
49543;Laerm;35435;48.792;8.962;2022-12-07T02:27:32;39.86;36.63;43.58;;
49543;Laerm;35435;48.792;8.962;2022-12-07T02:30:02;40.75;37.47;44.17;;
49543;Laerm;35435;48.792;8.962;2022-12-07T02:32:33;40.88;37.52;44.66;;
49543;Laerm;35435;48.792;8.962;2022-12-07T02:35:01;40.58;36.74;44.69;;
49543;Laerm;35435;48.792;8.962;2022-12-07T02:37:26;40.60;37.12;44.84;;
49543;Laerm;35435;48.792;8.962;2022-12-07T02:42:32;40.48;36.80;44.76;;
49543;Laerm;35435;48.792;8.962;2022-12-07T02:44:57;40.36;37.32;44.31;;
49543;Laerm;35435;48.792;8.962;2022-12-07T02:47:24;39.91;36.57;42.59;;
49543;Laerm;35435;48.792;8.962;2022-12-07T02:49:50;40.55;37.47;49.22;;
49543;Laerm;35435;48.792;8.962;2022-12-07T02:52:16;40.93;36.74;48.49;;
49543;Laerm;35435;48.792;8.962;2022-12-07T02:54:41;40.68;37.02;49.12;;
49543;Laerm;35435;48.792;8.962;2022-12-07T02:57:14;40.83;37.92;43.39;;
49543;Laerm;35435;48.792;8.962;2022-12-07T03:09:52;41.13;37.22;46.85;;
49543;Laerm;35435;48.792;8.962;2022-12-07T03:12:19;40.48;37.22;49.75;;
49543;Laerm;35435;48.792;8.962;2022-12-07T03:14:46;40.30;37.42;42.83;;
49543;Laerm;35435;48.792;8.962;2022-12-07T03:19:39;40.38;37.17;43.81;;
49543;Laerm;35435;48.792;8.962;2022-12-07T03:22:07;40.10;36.80;43.27;;
49543;Laerm;35435;48.792;8.962;2022-12-07T03:24:37;40.25;36.33;43.17;;
49543;Laerm;35435;48.792;8.962;2022-12-07T03:27:04;40.98;38.21;44.51;;
49543;Laerm;35435;48.792;8.962;2022-12-07T03:29:33;41.31;38.17;43.39;;
49543;Laerm;35435;48.792;8.962;2022-12-07T03:32:02;41.52;38.41;44.11;;
49543;Laerm;35435;48.792;8.962;2022-12-07T03:34:29;41.51;37.70;44.19;;
49543;Laerm;35435;48.792;8.962;2022-12-07T03:37:08;41.84;38.37;45.10;;
49543;Laerm;35435;48.792;8.962;2022-12-07T03:39:56;42.01;38.33;55.61;;
49543;Laerm;35435;48.792;8.962;2022-12-07T03:42:17;42.09;39.21;46.11;;
49543;Laerm;35435;48.792;8.962;2022-12-07T03:44:42;57.49;38.92;76.07;;
49543;Laerm;35435;48.792;8.962;2022-12-07T03:47:12;41.31;38.01;43.69;;
49543;Laerm;35435;48.792;8.962;2022-12-07T03:49:37;41.65;38.25;44.82;;
49543;Laerm;35435;48.792;8.962;2022-12-07T03:52:12;57.50;38.05;72.22;;
49543;Laerm;35435;48.792;8.962;2022-12-07T03:54:40;40.94;38.21;43.86;;
49543;Laerm;35435;48.792;8.962;2022-12-07T03:57:06;40.94;37.96;43.39;;
49543;Laerm;35435;48.792;8.962;2022-12-07T03:59:33;40.70;37.96;42.81;;
49543;Laerm;35435;48.792;8.962;2022-12-07T04:02:03;54.02;38.01;72.15;;
49543;Laerm;35435;48.792;8.962;2022-12-07T04:04:28;51.84;38.09;69.27;;
49543;Laerm;35435;48.792;8.962;2022-12-07T04:06:54;42.07;39.70;46.59;;
49543;Laerm;35435;48.792;8.962;2022-12-07T04:09:20;41.83;39.49;44.04;;
49543;Laerm;35435;48.792;8.962;2022-12-07T04:11:45;41.58;38.67;44.20;;
49543;Laerm;35435;48.792;8.962;2022-12-07T04:14:10;43.13;38.49;55.53;;
49543;Laerm;35435;48.792;8.962;2022-12-07T04:16:48;58.42;37.75;76.09;;
49543;Laerm;35435;48.792;8.962;2022-12-07T04:19:15;66.88;39.18;83.82;;
49543;Laerm;35435;48.792;8.962;2022-12-07T04:21:40;42.73;39.25;45.38;;
49543;Laerm;35435;48.792;8.962;2022-12-07T04:24:06;41.76;39.12;43.95;;
49543;Laerm;35435;48.792;8.962;2022-12-07T04:26:31;41.80;38.88;59.12;;
49543;Laerm;35435;48.792;8.962;2022-12-07T04:28:57;42.30;38.25;47.18;;
49543;Laerm;35435;48.792;8.962;2022-12-07T04:31:22;58.40;39.21;77.66;;
49543;Laerm;35435;48.792;8.962;2022-12-07T04:33:47;42.95;39.31;48.37;;
49543;Laerm;35435;48.792;8.962;2022-12-07T04:36:13;43.07;40.46;49.04;;
49543;Laerm;35435;48.792;8.962;2022-12-07T04:38:38;43.06;39.78;50.69;;
49543;Laerm;35435;48.792;8.962;2022-12-07T04:41:04;43.50;40.38;51.71;;
49543;Laerm;35435;48.792;8.962;2022-12-07T04:43:30;43.37;40.43;50.14;;
49543;Laerm;35435;48.792;8.962;2022-12-07T04:45:56;58.15;41.98;73.53;;
49543;Laerm;35435;48.792;8.962;2022-12-07T04:48:21;57.42;41.46;74.77;;
49543;Laerm;35435;48.792;8.962;2022-12-07T04:50:47;44.63;41.59;55.72;;
49543;Laerm;35435;48.792;8.962;2022-12-07T04:53:14;43.88;41.04;48.58;;
49543;Laerm;35435;48.792;8.962;2022-12-07T04:55:39;43.64;41.42;48.67;;
49543;Laerm;35435;48.792;8.962;2022-12-07T04:58:04;43.35;41.10;46.98;;
49543;Laerm;35435;48.792;8.962;2022-12-07T05:00:30;46.38;41.22;63.12;;
49543;Laerm;35435;48.792;8.962;2022-12-07T05:02:55;60.98;42.14;78.95;;
49543;Laerm;35435;48.792;8.962;2022-12-07T05:05:20;43.81;41.14;52.31;;
49543;Laerm;35435;48.792;8.962;2022-12-07T05:07:46;44.11;41.15;54.73;;
49543;Laerm;35435;48.792;8.962;2022-12-07T05:10:11;43.27;40.67;45.06;;
49543;Laerm;35435;48.792;8.962;2022-12-07T05:12:37;43.77;40.71;47.66;;
49543;Laerm;35435;48.792;8.962;2022-12-07T05:15:02;59.73;41.06;80.11;;
49543;Laerm;35435;48.792;8.962;2022-12-07T05:17:28;58.18;41.14;75.99;;
49543;Laerm;35435;48.792;8.962;2022-12-07T05:19:53;43.15;38.85;59.74;;
49543;Laerm;35435;48.792;8.962;2022-12-07T05:22:18;41.36;38.67;43.29;;
49543;Laerm;35435;48.792;8.962;2022-12-07T05:24:44;64.86;39.31;85.17;;
49543;Laerm;35435;48.792;8.962;2022-12-07T05:27:09;41.68;38.98;45.13;;
49543;Laerm;35435;48.792;8.962;2022-12-07T05:29:34;43.57;39.43;52.81;;
49543;Laerm;35435;48.792;8.962;2022-12-07T05:32:00;62.24;40.69;79.32;;
49543;Laerm;35435;48.792;8.962;2022-12-07T05:34:25;48.64;40.67;71.58;;
49543;Laerm;35435;48.792;8.962;2022-12-07T05:36:51;43.25;39.34;47.66;;
49543;Laerm;35435;48.792;8.962;2022-12-07T05:39:16;42.29;39.92;44.81;;
49543;Laerm;35435;48.792;8.962;2022-12-07T05:41:41;42.11;39.49;44.15;;
49543;Laerm;35435;48.792;8.962;2022-12-07T05:44:25;45.38;39.87;54.58;;
49543;Laerm;35435;48.792;8.962;2022-12-07T05:46:51;59.62;40.46;77.84;;
49543;Laerm;35435;48.792;8.962;2022-12-07T05:49:16;44.47;41.93;48.44;;
49543;Laerm;35435;48.792;8.962;2022-12-07T05:51:41;56.43;42.96;74.00;;
49543;Laerm;35435;48.792;8.962;2022-12-07T05:54:07;43.31;40.85;45.29;;
49543;Laerm;35435;48.792;8.962;2022-12-07T05:56:32;42.97;40.39;51.65;;
49543;Laerm;35435;48.792;8.962;2022-12-07T05:58:57;42.81;40.11;54.44;;
49543;Laerm;35435;48.792;8.962;2022-12-07T06:01:41;57.33;40.69;74.93;;
49543;Laerm;35435;48.792;8.962;2022-12-07T06:04:07;59.92;40.71;75.73;;
49543;Laerm;35435;48.792;8.962;2022-12-07T06:06:32;51.56;40.80;70.51;;
49543;Laerm;35435;48.792;8.962;2022-12-07T06:08:58;59.08;40.33;81.60;;
49543;Laerm;35435;48.792;8.962;2022-12-07T06:11:23;42.57;40.21;46.95;;
49543;Laerm;35435;48.792;8.962;2022-12-07T06:14:07;44.05;40.48;52.89;;
49543;Laerm;35435;48.792;8.962;2022-12-07T06:16:32;58.69;40.00;75.37;;
49543;Laerm;35435;48.792;8.962;2022-12-07T06:18:58;56.33;40.21;73.27;;
49543;Laerm;35435;48.792;8.962;2022-12-07T06:21:23;63.25;40.76;80.59;;
49543;Laerm;35435;48.792;8.962;2022-12-07T06:23:50;67.90;39.89;83.26;;
49543;Laerm;35435;48.792;8.962;2022-12-07T06:26:16;43.35;40.85;48.19;;
49543;Laerm;35435;48.792;8.962;2022-12-07T06:28:41;43.50;40.53;53.45;;
49543;Laerm;35435;48.792;8.962;2022-12-07T06:31:07;62.33;42.32;78.01;;
49543;Laerm;35435;48.792;8.962;2022-12-07T06:33:32;53.96;41.50;71.85;;
49543;Laerm;35435;48.792;8.962;2022-12-07T06:35:58;64.77;40.95;85.56;;
49543;Laerm;35435;48.792;8.962;2022-12-07T06:38:23;43.79;40.93;49.44;;
49543;Laerm;35435;48.792;8.962;2022-12-07T06:40:48;43.12;40.71;45.88;;
49543;Laerm;35435;48.792;8.962;2022-12-07T06:43:14;44.55;41.02;54.70;;
49543;Laerm;35435;48.792;8.962;2022-12-07T06:45:40;57.68;41.42;79.43;;
49543;Laerm;35435;48.792;8.962;2022-12-07T06:48:06;43.37;40.60;49.68;;
49543;Laerm;35435;48.792;8.962;2022-12-07T06:50:31;58.53;41.22;73.25;;
49543;Laerm;35435;48.792;8.962;2022-12-07T06:52:57;42.86;40.71;44.74;;
49543;Laerm;35435;48.792;8.962;2022-12-07T06:55:22;53.22;41.16;76.74;;
49543;Laerm;35435;48.792;8.962;2022-12-07T06:57:48;42.98;40.18;46.69;;
49543;Laerm;35435;48.792;8.962;2022-12-07T07:00:13;43.99;40.38;52.57;;
49543;Laerm;35435;48.792;8.962;2022-12-07T07:02:39;58.74;40.80;76.77;;
49543;Laerm;35435;48.792;8.962;2022-12-07T07:05:04;59.76;40.64;75.72;;
49543;Laerm;35435;48.792;8.962;2022-12-07T07:07:30;43.90;41.08;59.06;;
49543;Laerm;35435;48.792;8.962;2022-12-07T07:09:55;44.05;41.24;56.01;;
49543;Laerm;35435;48.792;8.962;2022-12-07T07:12:20;45.31;40.82;63.34;;
49543;Laerm;35435;48.792;8.962;2022-12-07T07:14:46;59.50;41.70;77.13;;
49543;Laerm;35435;48.792;8.962;2022-12-07T07:17:12;58.74;41.30;74.99;;
49543;Laerm;35435;48.792;8.962;2022-12-07T07:19:37;45.45;41.50;55.14;;
49543;Laerm;35435;48.792;8.962;2022-12-07T07:22:02;43.88;40.82;48.07;;
49543;Laerm;35435;48.792;8.962;2022-12-07T07:24:28;43.28;40.89;49.33;;
49543;Laerm;35435;48.792;8.962;2022-12-07T07:26:53;43.09;40.33;51.44;;
49543;Laerm;35435;48.792;8.962;2022-12-07T07:29:19;45.32;41.30;62.89;;
49543;Laerm;35435;48.792;8.962;2022-12-07T07:31:44;58.66;40.41;77.44;;
49543;Laerm;35435;48.792;8.962;2022-12-07T07:34:10;57.87;40.85;76.04;;
49543;Laerm;35435;48.792;8.962;2022-12-07T07:36:35;42.62;40.03;47.64;;
49543;Laerm;35435;48.792;8.962;2022-12-07T07:39:00;42.83;40.32;50.68;;
49543;Laerm;35435;48.792;8.962;2022-12-07T07:41:26;43.78;40.48;55.50;;
49543;Laerm;35435;48.792;8.962;2022-12-07T07:43:51;45.31;41.34;56.16;;
49543;Laerm;35435;48.792;8.962;2022-12-07T07:46:17;59.20;41.18;80.93;;
49543;Laerm;35435;48.792;8.962;2022-12-07T07:48:42;43.98;41.55;46.41;;
49543;Laerm;35435;48.792;8.962;2022-12-07T07:51:07;70.84;42.32;86.05;;
49543;Laerm;35435;48.792;8.962;2022-12-07T07:53:33;44.46;41.68;51.83;;
49543;Laerm;35435;48.792;8.962;2022-12-07T07:55:58;44.74;42.01;62.07;;
49543;Laerm;35435;48.792;8.962;2022-12-07T07:58:24;43.82;41.18;56.59;;
49543;Laerm;35435;48.792;8.962;2022-12-07T08:00:49;57.03;40.87;75.89;;
49543;Laerm;35435;48.792;8.962;2022-12-07T08:03:15;43.67;40.41;51.57;;
49543;Laerm;35435;48.792;8.962;2022-12-07T08:05:40;56.70;40.64;74.10;;
49543;Laerm;35435;48.792;8.962;2022-12-07T08:08:05;43.56;40.93;58.20;;
49543;Laerm;35435;48.792;8.962;2022-12-07T08:10:31;67.73;41.32;82.31;;
49543;Laerm;35435;48.792;8.962;2022-12-07T08:12:57;43.62;41.10;52.26;;
49543;Laerm;35435;48.792;8.962;2022-12-07T08:15:42;44.01;40.85;53.78;;
49543;Laerm;35435;48.792;8.962;2022-12-07T08:18:08;44.06;41.24;50.81;;
49543;Laerm;35435;48.792;8.962;2022-12-07T08:20:34;44.00;41.38;48.12;;
49543;Laerm;35435;48.792;8.962;2022-12-07T08:23:00;61.90;42.18;78.67;;
49543;Laerm;35435;48.792;8.962;2022-12-07T08:25:27;44.01;40.87;54.41;;
49543;Laerm;35435;48.792;8.962;2022-12-07T08:27:52;43.16;39.70;56.15;;
49543;Laerm;35435;48.792;8.962;2022-12-07T08:30:18;57.38;41.04;88.43;;
49543;Laerm;35435;48.792;8.962;2022-12-07T08:32:44;57.11;40.50;82.14;;
49543;Laerm;35435;48.792;8.962;2022-12-07T08:35:10;57.85;39.97;74.14;;
49543;Laerm;35435;48.792;8.962;2022-12-07T08:37:35;44.23;40.28;59.85;;
49543;Laerm;35435;48.792;8.962;2022-12-07T08:40:01;43.17;40.33;48.14;;
49543;Laerm;35435;48.792;8.962;2022-12-07T08:42:26;43.25;40.48;47.30;;
49543;Laerm;35435;48.792;8.962;2022-12-07T08:44:54;58.29;40.53;80.61;;
49543;Laerm;35435;48.792;8.962;2022-12-07T08:47:19;56.92;40.23;74.11;;
49543;Laerm;35435;48.792;8.962;2022-12-07T08:49:45;44.59;41.10;53.18;;
49543;Laerm;35435;48.792;8.962;2022-12-07T08:52:12;44.42;41.40;52.04;;
49543;Laerm;35435;48.792;8.962;2022-12-07T08:54:38;43.68;39.58;47.69;;
49543;Laerm;35435;48.792;8.962;2022-12-07T08:57:04;43.04;40.11;55.87;;
49543;Laerm;35435;48.792;8.962;2022-12-07T08:59:31;44.56;41.24;53.75;;
49543;Laerm;35435;48.792;8.962;2022-12-07T09:01:58;58.72;40.85;75.91;;
49543;Laerm;35435;48.792;8.962;2022-12-07T09:04:23;45.67;40.97;56.13;;
49543;Laerm;35435;48.792;8.962;2022-12-07T09:06:49;43.97;40.73;50.34;;
49543;Laerm;35435;48.792;8.962;2022-12-07T09:09:14;57.28;40.76;77.58;;
49543;Laerm;35435;48.792;8.962;2022-12-07T09:11:40;42.88;40.31;47.00;;
49543;Laerm;35435;48.792;8.962;2022-12-07T09:14:05;43.21;40.55;47.95;;
49543;Laerm;35435;48.792;8.962;2022-12-07T09:16:30;59.34;41.70;76.36;;
49543;Laerm;35435;48.792;8.962;2022-12-07T09:18:56;45.47;40.95;53.97;;
49543;Laerm;35435;48.792;8.962;2022-12-07T09:21:21;44.13;40.50;65.42;;
49543;Laerm;35435;48.792;8.962;2022-12-07T09:23:46;46.77;41.40;55.50;;
49543;Laerm;35435;48.792;8.962;2022-12-07T09:26:12;46.60;41.51;53.86;;
49543;Laerm;35435;48.792;8.962;2022-12-07T09:28:37;44.68;41.18;54.97;;
49543;Laerm;35435;48.792;8.962;2022-12-07T09:31:03;56.76;41.22;76.99;;
49543;Laerm;35435;48.792;8.962;2022-12-07T09:33:28;45.57;40.60;61.14;;
49543;Laerm;35435;48.792;8.962;2022-12-07T09:35:53;57.79;40.91;77.61;;
49543;Laerm;35435;48.792;8.962;2022-12-07T09:38:19;44.68;40.38;51.38;;
49543;Laerm;35435;48.792;8.962;2022-12-07T09:40:44;43.26;39.71;53.40;;
49543;Laerm;35435;48.792;8.962;2022-12-07T09:43:13;42.87;40.05;54.24;;
49543;Laerm;35435;48.792;8.962;2022-12-07T09:45:39;56.63;40.04;74.98;;
49543;Laerm;35435;48.792;8.962;2022-12-07T09:48:08;42.82;39.61;54.70;;
49543;Laerm;35435;48.792;8.962;2022-12-07T09:50:33;65.62;39.58;80.07;;
49543;Laerm;35435;48.792;8.962;2022-12-07T09:53:20;43.04;40.03;49.40;;
49543;Laerm;35435;48.792;8.962;2022-12-07T09:55:28;42.62;39.58;47.92;;
49543;Laerm;35435;48.792;8.962;2022-12-07T09:57:54;42.77;39.61;50.37;;
49543;Laerm;35435;48.792;8.962;2022-12-07T10:00:21;55.30;40.38;71.11;;
49543;Laerm;35435;48.792;8.962;2022-12-07T10:02:55;57.45;40.54;75.43;;
49543;Laerm;35435;48.792;8.962;2022-12-07T10:05:18;44.44;39.67;58.89;;
49543;Laerm;35435;48.792;8.962;2022-12-07T10:07:44;44.81;40.36;50.99;;
49543;Laerm;35435;48.792;8.962;2022-12-07T10:10:13;44.84;39.84;52.48;;
49543;Laerm;35435;48.792;8.962;2022-12-07T10:12:57;45.16;40.21;52.48;;
49543;Laerm;35435;48.792;8.962;2022-12-07T10:15:19;59.10;39.78;76.19;;
49543;Laerm;35435;48.792;8.962;2022-12-07T10:17:48;57.60;39.43;78.42;;
49543;Laerm;35435;48.792;8.962;2022-12-07T10:20:22;42.07;39.34;55.14;;
49543;Laerm;35435;48.792;8.962;2022-12-07T10:23:00;42.33;39.61;48.81;;
49543;Laerm;35435;48.792;8.962;2022-12-07T10:25:27;43.08;40.18;49.79;;
49543;Laerm;35435;48.792;8.962;2022-12-07T10:27:57;44.22;40.31;62.17;;
49543;Laerm;35435;48.792;8.962;2022-12-07T10:30:23;58.38;40.36;81.08;;
49543;Laerm;35435;48.792;8.962;2022-12-07T10:32:48;56.76;40.97;77.52;;
49543;Laerm;35435;48.792;8.962;2022-12-07T10:35:24;44.54;40.11;51.39;;
49543;Laerm;35435;48.792;8.962;2022-12-07T10:37:50;63.36;41.57;81.69;;
49543;Laerm;35435;48.792;8.962;2022-12-07T10:43:02;43.17;39.84;60.42;;
49543;Laerm;35435;48.792;8.962;2022-12-07T10:45:28;57.48;39.92;75.69;;
49543;Laerm;35435;48.792;8.962;2022-12-07T10:55:49;45.37;40.13;59.49;;
49543;Laerm;35435;48.792;8.962;2022-12-07T11:00:43;57.63;39.18;78.47;;
49543;Laerm;35435;48.792;8.962;2022-12-07T11:03:24;56.57;39.21;77.99;;
49543;Laerm;35435;48.792;8.962;2022-12-07T11:06:02;51.14;40.03;75.48;;
49543;Laerm;35435;48.792;8.962;2022-12-07T11:11:14;43.83;40.26;58.74;;
49543;Laerm;35435;48.792;8.962;2022-12-07T11:21:28;42.99;39.52;51.00;;
49543;Laerm;35435;48.792;8.962;2022-12-07T11:24:01;64.31;39.78;82.09;;
49543;Laerm;35435;48.792;8.962;2022-12-07T11:29:07;45.07;40.50;53.42;;
49543;Laerm;35435;48.792;8.962;2022-12-07T11:31:36;57.22;39.75;74.83;;
49543;Laerm;35435;48.792;8.962;2022-12-07T11:36:37;42.42;39.15;53.31;;
49543;Laerm;35435;48.792;8.962;2022-12-07T11:39:11;58.19;39.05;76.26;;
49543;Laerm;35435;48.792;8.962;2022-12-07T11:41:34;42.69;38.98;48.05;;
49543;Laerm;35435;48.792;8.962;2022-12-07T11:44:22;42.95;40.05;49.98;;
49543;Laerm;35435;48.792;8.962;2022-12-07T11:46:45;56.29;39.55;75.02;;
49543;Laerm;35435;48.792;8.962;2022-12-07T11:49:21;41.95;38.67;44.78;;
49543;Laerm;35435;48.792;8.962;2022-12-07T11:51:46;56.68;39.67;76.27;;
49543;Laerm;35435;48.792;8.962;2022-12-07T11:54:19;42.46;38.92;48.65;;
49543;Laerm;35435;48.792;8.962;2022-12-07T11:56:41;42.67;39.87;46.81;;
49543;Laerm;35435;48.792;8.962;2022-12-07T12:01:53;56.83;38.85;80.44;;
49543;Laerm;35435;48.792;8.962;2022-12-07T12:04:23;56.50;40.55;72.36;;
49543;Laerm;35435;48.792;8.962;2022-12-07T12:06:47;63.65;40.21;77.78;;
49543;Laerm;35435;48.792;8.962;2022-12-07T12:12:25;44.25;40.82;54.75;;
49543;Laerm;35435;48.792;8.962;2022-12-07T12:21:40;44.86;39.67;53.78;;
49543;Laerm;35435;48.792;8.962;2022-12-07T12:24:11;44.90;39.87;54.78;;
49543;Laerm;35435;48.792;8.962;2022-12-07T12:26:36;43.53;39.49;51.41;;
49543;Laerm;35435;48.792;8.962;2022-12-07T12:29:03;42.05;38.45;49.12;;
49543;Laerm;35435;48.792;8.962;2022-12-07T12:31:37;61.18;39.31;79.12;;
49543;Laerm;35435;48.792;8.962;2022-12-07T12:34:29;42.47;38.98;48.78;;
49543;Laerm;35435;48.792;8.962;2022-12-07T12:44:03;43.40;38.29;52.28;;
49543;Laerm;35435;48.792;8.962;2022-12-07T12:51:43;42.29;38.01;50.24;;
49543;Laerm;35435;48.792;8.962;2022-12-07T12:59:32;43.34;38.29;52.54;;
49543;Laerm;35435;48.792;8.962;2022-12-07T13:04:30;42.38;39.25;51.82;;
49543;Laerm;35435;48.792;8.962;2022-12-07T13:06:55;42.52;39.20;53.13;;
49543;Laerm;35435;48.792;8.962;2022-12-07T13:09:25;42.89;39.75;48.68;;
49543;Laerm;35435;48.792;8.962;2022-12-07T13:12:13;42.28;39.46;46.56;;
49543;Laerm;35435;48.792;8.962;2022-12-07T13:17:13;57.55;40.13;79.29;;
49543;Laerm;35435;48.792;8.962;2022-12-07T13:27:25;42.44;39.34;48.43;;
49543;Laerm;35435;48.792;8.962;2022-12-07T13:29:52;55.55;40.46;70.68;;
49543;Laerm;35435;48.792;8.962;2022-12-07T13:32:25;57.50;39.78;78.24;;
49543;Laerm;35435;48.792;8.962;2022-12-07T13:34:51;53.18;39.08;71.09;;
49543;Laerm;35435;48.792;8.962;2022-12-07T13:37:26;42.25;39.02;56.28;;
49543;Laerm;35435;48.792;8.962;2022-12-07T13:42:21;56.99;38.56;73.76;;
49543;Laerm;35435;48.792;8.962;2022-12-07T13:44:46;43.69;38.13;57.49;;
49543;Laerm;35435;48.792;8.962;2022-12-07T13:47:19;48.10;39.15;63.49;;
49543;Laerm;35435;48.792;8.962;2022-12-07T13:49:48;60.10;39.37;80.45;;
49543;Laerm;35435;48.792;8.962;2022-12-07T13:52:18;42.16;39.64;47.22;;
49543;Laerm;35435;48.792;8.962;2022-12-07T13:54:56;57.88;40.00;71.62;;
49543;Laerm;35435;48.792;8.962;2022-12-07T13:57:15;43.55;39.97;52.27;;
49543;Laerm;35435;48.792;8.962;2022-12-07T13:59:40;44.48;40.08;57.41;;
49543;Laerm;35435;48.792;8.962;2022-12-07T14:02:26;57.41;39.67;78.91;;
49543;Laerm;35435;48.792;8.962;2022-12-07T14:04:51;44.08;40.69;51.29;;
49543;Laerm;35435;48.792;8.962;2022-12-07T14:07:22;55.31;41.24;72.53;;
49543;Laerm;35435;48.792;8.962;2022-12-07T14:09:52;43.88;41.20;57.24;;
49543;Laerm;35435;48.792;8.962;2022-12-07T14:12:11;43.85;40.57;50.76;;
49543;Laerm;35435;48.792;8.962;2022-12-07T14:14:37;43.17;40.21;48.67;;
49543;Laerm;35435;48.792;8.962;2022-12-07T14:17:11;59.14;40.78;76.02;;
49543;Laerm;35435;48.792;8.962;2022-12-07T14:19:52;43.48;40.13;48.69;;
49543;Laerm;35435;48.792;8.962;2022-12-07T14:22:21;54.43;39.78;74.74;;
49543;Laerm;35435;48.792;8.962;2022-12-07T14:24:47;43.43;39.55;48.44;;
49543;Laerm;35435;48.792;8.962;2022-12-07T14:27:19;54.79;39.70;75.33;;
49543;Laerm;35435;48.792;8.962;2022-12-07T14:29:45;42.00;39.46;49.81;;
49543;Laerm;35435;48.792;8.962;2022-12-07T14:34:41;44.17;39.49;54.39;;
49543;Laerm;35435;48.792;8.962;2022-12-07T14:37:08;56.31;40.05;73.95;;
49543;Laerm;35435;48.792;8.962;2022-12-07T14:39:34;42.30;39.75;45.74;;
49543;Laerm;35435;48.792;8.962;2022-12-07T14:41:59;42.71;40.26;51.32;;
49543;Laerm;35435;48.792;8.962;2022-12-07T14:44:25;42.91;39.34;59.37;;
49543;Laerm;35435;48.792;8.962;2022-12-07T14:46:50;43.41;39.02;56.81;;
49543;Laerm;35435;48.792;8.962;2022-12-07T14:49:16;60.22;39.46;78.10;;
49543;Laerm;35435;48.792;8.962;2022-12-07T14:51:42;42.66;39.37;52.07;;
49543;Laerm;35435;48.792;8.962;2022-12-07T14:54:12;42.83;39.97;47.23;;
49543;Laerm;35435;48.792;8.962;2022-12-07T14:56:35;42.58;39.49;45.76;;
49543;Laerm;35435;48.792;8.962;2022-12-07T14:59:01;42.69;40.28;55.94;;
49543;Laerm;35435;48.792;8.962;2022-12-07T15:01:26;60.50;39.78;81.46;;
49543;Laerm;35435;48.792;8.962;2022-12-07T15:03:51;57.47;39.84;76.15;;
49543;Laerm;35435;48.792;8.962;2022-12-07T15:06:17;41.94;38.88;47.32;;
49543;Laerm;35435;48.792;8.962;2022-12-07T15:08:45;41.90;39.21;56.39;;
49543;Laerm;35435;48.792;8.962;2022-12-07T15:11:14;54.44;38.95;75.50;;
49543;Laerm;35435;48.792;8.962;2022-12-07T15:13:37;43.02;39.05;51.94;;
49543;Laerm;35435;48.792;8.962;2022-12-07T15:16:21;55.53;40.28;74.69;;
49543;Laerm;35435;48.792;8.962;2022-12-07T15:18:46;62.04;40.00;78.66;;